DW3801 Weather Reports


Display with metric or nautical units.
time (UTC)temp
F
wind
direction
speed
MPH
gust
MPH
rain 1hr
in
rain 24hr
in
rain mn
in
humidity
%
barometer
mb
20191211034533 54 264 0.0 0.0 0.00 0.01 0.01 95 1023.2
20191211033018 55 264 0.0 0.0 0.00 0.01 0.01 94 1023.3
20191211031621 55 264 0.0 0.0 0.00 0.01 0.01 94 1023.2
20191211030046 55 264 0.0 0.0 0.00 0.01 0.01 94 1023.0
20191211024637 56 264 0.0 0.0 0.00 0.01 0.01 93 1023.0
20191211023132 57 264 0.0 0.0 0.00 0.01 0.01 92 1022.9
20191211021549 58 264 0.0 0.0 0.00 0.01 0.01 92 1023.3
20191211020037 58 264 0.0 3.0 0.00 0.01 0.01 93 1023.4
20191211014551 58 265 0.0 0.0 0.00 0.01 0.01 92 1023.4
20191211013026 59 265 0.0 1.0 0.00 0.01 0.01 92 1023.3
20191211011539 59 265 0.0 2.0 0.00 0.01 0.01 91 1023.4
20191211010110 59 265 0.0 0.0 0.00 0.01 0.01 90 1023.2
20191211004517 59 265 0.0 0.0 0.00 0.01 0.01 89 1023.0
20191211003010 60 265 0.0 2.0 0.00 0.01 0.01 89 1022.8
20191211001526 60 265 0.0 2.0 0.00 0.01 0.01 88 1022.8
20191211000053 61 265 1.0 6.0 0.00 0.01 0.01 88 1022.9
20191210234633 61 265 0.0 0.0 0.00 0.01 0.01 87 1022.6
20191210233017 61 265 0.0 2.0 0.00 0.01 0.01 85 1022.5
20191210231541 62 265 0.0 3.0 0.00 0.01 0.01 85 1022.8
20191210230018 62 266 0.0 4.0 0.00 0.01 0.01 84 1022.9
20191210224525 63 266 0.0 7.0 0.00 0.01 0.01 83 1023.0
20191210223004 63 269 1.0 7.0 0.00 0.01 0.01 83 1023.1
20191210221531 64 270 0.0 3.0 0.00 0.01 0.01 81 1022.9
20191210220011 63 269 0.0 0.0 0.00 0.01 0.01 83 1023.0
20191210214539 62 269 0.0 3.0 0.00 0.01 0.01 85 1023.1
20191210213015 62 270 0.0 4.0 0.00 0.01 0.01 85 1023.2
20191210211503 63 269 0.0 4.0 0.00 0.01 0.01 84 1023.3
20191210210326 62 267 1.0 7.0 0.00 0.01 0.01 84 1023.4
20191210204837 62 296 1.0 5.0 0.00 0.01 0.01 83 1023.4
20191210203223 63 316 1.0 4.0 0.00 0.01 0.01 79 1023.4
20191210201810 64 111 0.0 4.0 0.00 0.01 0.01 74 1023.6
20191210200353 63 322 0.0 2.0 0.00 0.01 0.01 80 1023.9
20191210194706 62 319 0.0 3.0 0.00 0.01 0.01 81 1024.1
20191210193146 63 73 0.0 2.0 0.00 0.01 0.01 80 1024.5
20191210191807 62 74 0.0 6.0 0.00 0.01 0.01 82 1024.8
20191210190246 62 86 1.0 6.0 0.00 0.01 0.01 83 1024.9
20191210185051 61 88 0.0 6.0 0.00 0.01 0.01 85 1025.0
20191210183215 60 106 1.0 6.0 0.00 0.01 0.01 88 1025.1
20191210181801 59 116 1.0 4.0 0.00 0.01 0.01 89 1025.2
20191210180251 58 117 0.0 3.0 0.00 0.01 0.01 92 1025.3
20191210174753 57 117 0.0 2.0 0.00 0.01 0.01 93 1025.3
20191210173145 56 117 0.0 0.0 0.00 0.01 0.01 92 1025.1
20191210171543 56 117 0.0 1.0 0.00 0.01 0.01 93 1024.9
20191210170038 56 117 0.0 2.0 0.00 0.01 0.01 94 1024.6
20191210164722 55 117 0.0 3.0 0.00 0.01 0.01 94 1024.5
20191210163123 55 117 0.0 1.0 0.00 0.01 0.01 94 1024.1
20191210161538 55 117 0.0 4.0 0.00 0.01 0.01 94 1024.0
20191210160034 55 117 1.0 4.0 0.00 0.01 0.01 94 1023.7
20191210154522 55 118 1.0 4.0 0.00 0.01 0.01 95 1023.5
20191210153028 55 121 2.0 4.0 0.00 0.01 0.01 96 1023.3
20191210151520 54 132 2.0 4.0 0.00 0.01 0.01 96 1023.2
20191210150018 54 132 1.0 5.0 0.01 0.01 0.01 96 1023.3
20191210144518 53 131 1.0 5.0 0.01 0.02 0.01 96 1023.2
20191210143023 52 129 1.0 4.0 0.01 0.02 0.01 96 1023.3
20191210141515 52 129 1.0 4.0 0.01 0.02 0.01 96 1023.0
20191210140025 52 124 0.0 3.0 0.00 0.01 0.00 97 1022.8
20191210134503 52 121 1.0 4.0 0.00 0.01 0.00 96 1022.7
20191210133336 52 122 0.0 0.0 0.00 0.01 0.00 96 1022.7
20191210131706 52 122 0.0 2.0 0.00 0.01 0.00 97 1022.7
20191210130240 53 122 0.0 0.0 0.00 0.01 0.00 96 1022.6
20191210124732 53 122 0.0 2.0 0.00 0.01 0.00 97 1022.5
20191210123140 53 122 0.0 2.0 0.00 0.01 0.00 97 1022.8
20191210121625 52 124 1.0 3.0 0.00 0.01 0.00 97 1022.3
20191210120255 52 124 0.0 3.0 0.00 0.01 0.00 96 1022.2
20191210114642 52 140 0.0 3.0 0.00 0.01 0.00 96 1022.1
20191210113250 53 143 0.0 0.0 0.00 0.01 0.00 96 1022.1
20191210111629 53 144 0.0 0.0 0.00 0.01 0.00 96 1022.1
20191210110222 53 144 0.0 0.0 0.00 0.01 0.00 96 1022.1
20191210104642 52 144 0.0 2.0 0.00 0.01 0.00 96 1022.0
20191210103235 52 149 0.0 0.0 0.00 0.01 0.00 96 1022.0
20191210101651 53 149 0.0 0.0 0.00 0.01 0.00 96 1021.9
20191210100134 53 149 0.0 2.0 0.00 0.01 0.00 96 1021.9
20191210094750 53 257 0.0 0.0 0.00 0.01 0.00 96 1021.8
20191210093145 53 257 0.0 0.0 0.00 0.01 0.00 96 1022.1
20191210090050 53 257 0.0 1.0 0.00 0.01 0.00 95 1022.0
20191210084635 53 257 0.0 2.0 0.00 0.01 0.00 94 1022.0
20191210083205 54 257 0.0 0.0 0.00 0.01 0.00 94 1021.9
20191210081555 54 257 0.0 1.0 0.00 0.01 0.00 94 1021.7
20191210080142 53 257 0.0 0.0 0.00 0.01 0.00 92 1021.7
20191210074539 53 257 0.0 0.0 0.00 0.01 0.01 92 1022.4
20191210073034 53 257 0.0 0.0 0.00 0.01 0.01 90 1021.7
20191210071611 54 257 0.0 0.0 0.00 0.01 0.01 89 1021.5
20191210070124 54 257 0.0 0.0 0.00 0.01 0.01 89 1021.3
20191210064539 54 257 0.0 0.0 0.00 0.01 0.01 87 1021.3
20191210063037 54 257 0.0 0.0 0.00 0.01 0.01 87 1021.2
20191210061533 55 257 0.0 0.0 0.00 0.01 0.01 86 1021.1
20191210060141 54 257 0.0 1.0 0.00 0.01 0.01 88 1021.0
20191210054610 54 257 0.0 0.0 0.00 0.01 0.01 89 1020.9
20191210053058 55 257 0.0 0.0 0.00 0.01 0.01 89 1020.7
20191210051523 55 257 0.0 0.0 0.00 0.01 0.01 89 1020.7
20191210050019 55 257 0.0 0.0 0.00 0.01 0.01 89 1020.6
20191210044528 56 257 0.0 0.0 0.00 0.01 0.01 87 1020.6
20191210043031 57 257 0.0 0.0 0.00 0.01 0.01 87 1020.4
20191210041533 57 257 0.0 0.0 0.00 0.01 0.01 87 1020.5
20191210040019 57 257 0.0 1.0 0.00 0.01 0.01 89 1020.2